Time;durP1;ratioP1;P1;durP2;ratioP2;P2;SDS_P1;SDS_P2;PMS_P1;PMS_P2;Temp;Humidity;BMP_temperature;BMP_pressure;BME280_temperature;BME280_humidity;BME280_pressure;Samples;Min_cycle;Max_cycle;Signal;HPM_P1;HPM_P2
2022/01/19 00:01:03;;;;;;;13.88;8.57;;;8.70;80.00;;;;;;4997939;28;20030;-74
2022/01/19 00:03:29;;;;;;;13.85;8.45;;;8.70;79.90;;;;;;5007374;28;20555;-74
2022/01/19 00:05:55;;;;;;;12.90;8.10;;;8.70;80.00;;;;;;5000289;28;20026;-74
2022/01/19 00:08:22;;;;;;;12.75;8.45;;;8.70;80.20;;;;;;5000226;28;20031;-74
2022/01/19 00:10:49;;;;;;;12.75;7.68;;;8.70;80.40;;;;;;5000192;28;20083;-74
2022/01/19 00:13:16;;;;;;;13.80;8.43;;;8.70;80.20;;;;;;4997688;28;20038;-75
2022/01/19 00:15:42;;;;;;;13.80;8.27;;;8.70;80.40;;;;;;4997392;28;20031;-75
2022/01/19 00:18:08;;;;;;;12.27;7.43;;;8.70;80.40;;;;;;4998966;28;20030;-75
2022/01/19 00:20:34;;;;;;;14.27;8.20;;;8.80;80.50;;;;;;4999855;28;20037;-74
2022/01/19 00:23:03;;;;;;;12.65;8.55;;;8.70;80.20;;;;;;4999852;28;20026;-74
2022/01/19 00:25:29;;;;;;;11.80;7.88;;;8.70;80.00;;;;;;4999780;28;20026;-74
2022/01/19 00:27:55;;;;;;;12.55;7.50;;;8.70;80.60;;;;;;4996492;28;20070;-74
2022/01/19 00:30:21;;;;;;;14.10;8.48;;;8.70;80.40;;;;;;4994620;28;20022;-75
2022/01/19 00:32:47;;;;;;;14.18;8.15;;;8.70;80.50;;;;;;4996898;28;20030;-75
2022/01/19 00:35:13;;;;;;;12.02;8.13;;;8.70;80.50;;;;;;4996900;28;20580;-74
2022/01/19 00:37:40;;;;;;;12.15;7.45;;;8.70;80.40;;;;;;4997044;28;20065;-74
2022/01/19 00:40:09;;;;;;;13.10;8.02;;;8.70;80.40;;;;;;4995438;28;20129;-74
2022/01/19 00:42:34;;;;;;;11.70;7.32;;;8.70;80.50;;;;;;5011446;28;20389;-74
2022/01/19 00:45:00;;;;;;;12.48;7.72;;;8.70;80.40;;;;;;4996396;28;20091;-74
2022/01/19 00:47:25;;;;;;;11.77;7.85;;;8.70;80.40;;;;;;4999416;28;20050;-74
2022/01/19 00:49:51;;;;;;;10.45;7.15;;;8.70;80.60;;;;;;5010152;28;20022;-74
2022/01/19 00:52:17;;;;;;;13.05;7.82;;;8.70;80.50;;;;;;5008013;28;20046;-74
2022/01/19 00:54:43;;;;;;;12.18;8.32;;;8.70;80.40;;;;;;4994721;28;20014;-74
2022/01/19 00:57:09;;;;;;;14.68;8.43;;;8.60;80.40;;;;;;4995584;28;20451;-74
2022/01/19 00:59:35;;;;;;;14.15;8.57;;;8.60;80.40;;;;;;4996561;28;20022;-74
2022/01/19 01:02:02;;;;;;;12.13;7.35;;;8.60;80.40;;;;;;4996992;28;20030;-74
2022/01/19 01:04:28;;;;;;;13.13;8.63;;;8.60;80.80;;;;;;5007660;28;20027;-75
2022/01/19 01:06:54;;;;;;;12.68;8.18;;;8.60;80.80;;;;;;4995973;28;20070;-75
2022/01/19 01:09:20;;;;;;;15.00;8.73;;;8.60;80.60;;;;;;4994027;28;20444;-74
2022/01/19 01:12:41;;;;;;;13.18;8.30;;;8.60;80.80;;;;;;4996066;28;20046;-74
2022/01/19 01:20:05;;;;;;;10.85;7.38;;;8.60;80.90;;;;;;4996346;28;20523;-74
2022/01/19 01:22:31;;;;;;;10.80;7.50;;;8.60;80.90;;;;;;4995779;28;20034;-73
2022/01/19 01:24:57;;;;;;;14.75;9.05;;;8.60;80.90;;;;;;4996135;28;20044;-74
2022/01/19 01:27:22;;;;;;;14.68;9.20;;;8.60;81.30;;;;;;4993472;28;20041;-73
2022/01/19 01:29:48;;;;;;;13.35;8.55;;;8.60;81.00;;;;;;4995663;28;20022;-73
2022/01/19 01:32:14;;;;;;;12.57;8.65;;;8.60;80.90;;;;;;4995521;28;20463;-74
2022/01/19 01:34:39;;;;;;;13.63;8.43;;;8.70;81.00;;;;;;4999044;28;20022;-74
2022/01/19 01:37:05;;;;;;;13.98;8.07;;;8.60;80.70;;;;;;5010361;28;20034;-74
2022/01/19 01:39:31;;;;;;;13.77;8.43;;;8.60;80.90;;;;;;4999719;28;20033;-74
2022/01/19 01:41:56;;;;;;;14.23;8.77;;;8.60;81.10;;;;;;5010895;28;20399;-73
2022/01/19 01:44:22;;;;;;;13.65;9.10;;;8.70;81.20;;;;;;5002337;28;20105;-74
2022/01/19 01:46:52;;;;;;;12.43;8.27;;;8.60;80.90;;;;;;4996896;28;20040;-74
2022/01/19 01:49:29;;;;;;;14.13;8.63;;;8.60;81.10;;;;;;4996865;28;20026;-74
2022/01/19 01:54:40;;;;;;;13.77;8.02;;;8.70;81.10;;;;;;5008808;28;20530;-73
2022/01/19 01:57:07;;;;;;;13.10;8.57;;;8.70;81.10;;;;;;4994995;28;20105;-73
2022/01/19 01:59:34;;;;;;;13.23;8.05;;;8.60;80.80;;;;;;4996911;28;20027;-73
2022/01/19 02:02:00;;;;;;;12.30;8.45;;;8.60;80.90;;;;;;4996082;28;20033;-73
2022/01/19 02:04:26;;;;;;;16.02;9.60;;;8.60;81.20;;;;;;5006291;28;20408;-75
2022/01/19 02:09:21;;;;;;;16.23;9.63;;;8.70;81.60;;;;;;4992946;28;20023;-74
2022/01/19 02:23:37;;;;;;;13.52;8.57;;;8.70;80.90;;;;;;4994394;28;20080;-75
2022/01/19 02:26:01;;;;;;;13.45;8.70;;;8.70;81.10;;;;;;4994643;28;20045;-75
2022/01/19 02:42:05;;;;;;;15.15;9.15;;;8.70;81.30;;;;;;4994920;28;20528;-75
2022/01/19 02:46:31;;;;;;;14.35;8.95;;;8.70;81.30;;;;;;4999095;28;20072;-75
2022/01/19 02:49:53;;;;;;;15.50;9.40;;;8.70;82.40;;;;;;4998928;28;20031;-75
2022/01/19 02:52:20;;;;;;;12.30;8.70;;;8.70;81.50;;;;;;4998809;28;20018;-75
2022/01/19 02:54:46;;;;;;;13.82;8.45;;;8.70;81.30;;;;;;4997182;28;20403;-75
2022/01/19 02:57:13;;;;;;;14.00;8.45;;;8.70;81.20;;;;;;4997902;28;20027;-75
2022/01/19 03:10:38;;;;;;;15.43;9.23;;;8.70;81.60;;;;;;4959718;28;20482;-75
2022/01/19 03:13:04;;;;;;;14.57;8.93;;;8.70;81.40;;;;;;4974129;28;20046;-75
2022/01/19 03:15:29;;;;;;;14.68;8.63;;;8.70;81.30;;;;;;4958497;28;20190;-75
2022/01/19 03:17:58;;;;;;;13.70;8.57;;;8.70;81.60;;;;;;4969316;28;20149;-75
2022/01/19 03:20:26;;;;;;;16.30;9.00;;;8.70;81.30;;;;;;4952297;28;20058;-75
2022/01/19 03:23:02;;;;;;;14.18;8.98;;;8.60;81.30;;;;;;4970355;28;20035;-75
2022/01/19 03:25:29;;;;;;;14.25;8.68;;;8.60;81.10;;;;;;4962593;28;20511;-75
2022/01/19 03:27:55;;;;;;;14.02;8.45;;;8.50;81.30;;;;;;4957950;28;20130;-75
2022/01/19 03:30:21;;;;;;;13.15;8.43;;;8.60;81.50;;;;;;4959194;28;20114;-74
2022/01/19 03:32:47;;;;;;;12.90;8.25;;;8.60;81.60;;;;;;4962657;28;20023;-74
2022/01/19 03:35:13;;;;;;;13.40;8.23;;;8.60;81.50;;;;;;4961762;28;20043;-75
2022/01/19 03:37:39;;;;;;;12.52;7.85;;;8.60;81.90;;;;;;4962616;28;20038;-75
2022/01/19 03:40:07;;;;;;;13.90;8.40;;;8.60;81.60;;;;;;4959068;28;20150;-75
2022/01/19 03:42:33;;;;;;;13.07;7.57;;;8.60;81.20;;;;;;5013850;28;20041;-75
2022/01/19 03:44:58;;;;;;;12.90;7.95;;;8.60;81.60;;;;;;5000643;28;20018;-75
2022/01/19 03:47:27;;;;;;;12.75;8.10;;;8.60;81.70;;;;;;5002475;28;20403;-74
2022/01/19 03:49:52;;;;;;;15.27;9.23;;;8.60;81.60;;;;;;5009830;28;20029;-74
2022/01/19 03:52:18;;;;;;;11.77;7.47;;;8.60;81.40;;;;;;5010256;28;20389;-75
2022/01/19 03:54:45;;;;;;;12.13;7.55;;;8.60;81.40;;;;;;4995178;28;20033;-75
2022/01/19 03:57:11;;;;;;;13.45;8.05;;;8.60;81.60;;;;;;4996921;28;20026;-74
2022/01/19 03:59:37;;;;;;;11.13;7.63;;;8.60;81.60;;;;;;4997541;28;20084;-74
2022/01/19 04:02:04;;;;;;;15.02;8.55;;;8.70;82.50;;;;;;4998643;28;20121;-74
2022/01/19 04:07:08;;;;;;;15.52;8.90;;;8.60;81.20;;;;;;4997794;28;20022;-75
2022/01/19 04:09:39;;;;;;;13.02;7.80;;;8.60;81.30;;;;;;4995603;28;20030;-75
2022/01/19 04:12:07;;;;;;;12.15;7.40;;;8.60;81.40;;;;;;4996973;28;20046;-75
2022/01/19 04:14:34;;;;;;;12.88;8.30;;;8.60;81.20;;;;;;4997283;28;20037;-75
2022/01/19 04:17:06;;;;;;;13.15;8.07;;;8.60;81.30;;;;;;4997329;28;20038;-75
2022/01/19 04:19:40;;;;;;;15.13;8.32;;;8.60;81.30;;;;;;4996799;28;20034;-75
2022/01/19 04:22:09;;;;;;;13.68;7.75;;;8.60;81.60;;;;;;4997129;28;20033;-75
2022/01/19 04:24:35;;;;;;;13.07;8.13;;;8.60;81.30;;;;;;4995372;28;20080;-75
2022/01/19 04:30:08;;;;;;;14.40;8.25;;;8.60;81.30;;;;;;4997106;28;20524;-74
2022/01/19 04:32:43;;;;;;;14.73;8.52;;;8.60;81.00;;;;;;4995673;28;20065;-74
2022/01/19 04:35:12;;;;;;;14.10;8.48;;;8.60;81.30;;;;;;4999746;28;20049;-75
2022/01/19 05:02:29;;;;;;;13.70;7.95;;;8.70;81.40;;;;;;4997397;28;20563;-75
2022/01/19 05:07:26;;;;;;;13.68;7.60;;;8.60;81.00;;;;;;4995927;28;20113;-75
2022/01/19 05:13:24;;;;;;;13.98;7.60;;;8.60;81.10;;;;;;4995530;28;20025;-75
2022/01/19 05:15:34;;;;;;;13.70;8.45;;;8.60;81.60;;;;;;5009965;28;20507;-74
2022/01/19 05:18:02;;;;;;;14.52;8.32;;;8.60;81.30;;;;;;4995495;28;20030;-74
2022/01/19 05:20:28;;;;;;;13.25;7.88;;;8.60;81.40;;;;;;4996145;28;20041;-74
2022/01/19 05:22:53;;;;;;;16.10;9.70;;;8.60;81.30;;;;;;4996135;28;20101;-74
2022/01/19 05:25:19;;;;;;;16.05;8.27;;;8.60;81.40;;;;;;4996195;28;20030;-74
2022/01/19 05:27:45;;;;;;;13.70;7.68;;;8.70;81.60;;;;;;4994433;28;20053;-75
2022/01/19 05:30:11;;;;;;;15.45;8.70;;;8.70;81.70;;;;;;4995232;28;20026;-75
2022/01/19 05:32:37;;;;;;;14.32;7.70;;;8.70;81.00;;;;;;4995500;28;20449;-75
2022/01/19 05:35:03;;;;;;;15.18;8.55;;;8.60;81.30;;;;;;4995824;28;20128;-75
2022/01/19 05:37:29;;;;;;;15.27;8.98;;;8.70;81.50;;;;;;4995955;28;20034;-75
2022/01/19 05:39:54;;;;;;;15.07;8.88;;;8.70;81.10;;;;;;4994924;28;20040;-74
2022/01/19 05:42:20;;;;;;;16.05;9.07;;;8.60;81.00;;;;;;4993777;28;20034;-74
2022/01/19 05:44:47;;;;;;;14.35;8.02;;;8.60;81.00;;;;;;4999149;28;20038;-74
2022/01/19 05:47:14;;;;;;;16.33;9.10;;;8.60;81.40;;;;;;4998095;28;20085;-75
2022/01/19 05:49:43;;;;;;;15.73;8.73;;;8.60;81.00;;;;;;4998343;28;20049;-74
2022/01/19 05:52:10;;;;;;;14.40;8.50;;;8.60;81.00;;;;;;4995169;28;20081;-74
2022/01/19 05:54:36;;;;;;;15.48;8.13;;;8.60;81.30;;;;;;4994611;28;20022;-75
2022/01/19 05:57:02;;;;;;;14.68;8.88;;;8.60;81.40;;;;;;4997890;28;20117;-74
2022/01/19 05:59:28;;;;;;;13.85;8.02;;;8.60;81.30;;;;;;4998019;28;20509;-74
2022/01/19 06:01:55;;;;;;;14.77;8.68;;;8.60;81.10;;;;;;4997559;28;20049;-74
2022/01/19 06:04:21;;;;;;;15.57;8.55;;;8.60;81.10;;;;;;4999309;28;20174;-74
2022/01/19 06:06:49;;;;;;;15.43;9.20;;;8.60;81.10;;;;;;5011888;28;20105;-74
2022/01/19 06:09:35;;;;;;;14.10;8.63;;;8.60;81.40;;;;;;4994094;28;20026;-74
2022/01/19 06:12:07;;;;;;;16.25;8.30;;;8.60;81.20;;;;;;4994891;28;20067;-74
2022/01/19 06:14:35;;;;;;;14.90;8.18;;;8.60;80.90;;;;;;4995014;28;20034;-74
2022/01/19 06:17:01;;;;;;;13.68;8.07;;;8.50;81.10;;;;;;4995017;28;20042;-74
2022/01/19 06:19:27;;;;;;;14.95;8.85;;;8.60;81.50;;;;;;4995061;28;20034;-74
2022/01/19 06:21:53;;;;;;;15.85;8.50;;;8.60;81.30;;;;;;4994319;28;20557;-74
2022/01/19 06:24:19;;;;;;;11.05;7.25;;;8.60;81.30;;;;;;4993328;28;20436;-74
2022/01/19 06:26:44;;;;;;;13.70;7.90;;;8.60;81.50;;;;;;4995192;28;20499;-74
2022/01/19 06:29:10;;;;;;;13.60;7.97;;;8.50;81.50;;;;;;4994698;28;20042;-74
2022/01/19 06:31:36;;;;;;;15.45;8.32;;;8.60;81.30;;;;;;4995143;28;20037;-74
2022/01/19 06:34:01;;;;;;;14.80;8.15;;;8.60;81.50;;;;;;4995155;28;20485;-74
2022/01/19 06:36:27;;;;;;;14.52;8.27;;;8.60;81.20;;;;;;4992264;28;20055;-74
2022/01/19 06:38:53;;;;;;;13.63;7.47;;;8.60;81.70;;;;;;4999489;28;20096;-74
2022/01/19 06:41:19;;;;;;;13.35;8.07;;;8.60;81.60;;;;;;4997568;28;20027;-74
2022/01/19 06:43:44;;;;;;;13.75;7.63;;;8.60;81.50;;;;;;4997330;28;20551;-75
2022/01/19 06:46:10;;;;;;;12.73;7.93;;;8.60;82.40;;;;;;4994564;28;20108;-74
2022/01/19 06:48:36;;;;;;;13.50;7.95;;;8.70;81.60;;;;;;4995295;28;20065;-74
2022/01/19 06:51:02;;;;;;;14.93;8.75;;;8.60;81.10;;;;;;4997253;28;20400;-75
2022/01/19 06:53:27;;;;;;;12.95;7.45;;;8.60;81.30;;;;;;4997290;28;20030;-74
2022/01/19 06:55:57;;;;;;;15.30;8.52;;;8.60;81.20;;;;;;4997224;28;20030;-75
2022/01/19 06:58:26;;;;;;;15.68;8.15;;;8.60;81.10;;;;;;4994628;28;20049;-74
2022/01/19 07:00:52;;;;;;;12.77;7.93;;;8.50;81.10;;;;;;4993888;28;20022;-74
2022/01/19 07:03:18;;;;;;;13.85;7.55;;;8.50;81.20;;;;;;5002871;28;20519;-74
2022/01/19 07:05:43;;;;;;;13.38;7.75;;;8.50;81.30;;;;;;4995784;28;20065;-74
2022/01/19 07:08:09;;;;;;;12.20;6.88;;;8.60;81.90;;;;;;4994383;28;20030;-74
2022/01/19 07:10:35;;;;;;;13.75;7.65;;;8.60;81.60;;;;;;4994740;28;20030;-74
2022/01/19 07:13:02;;;;;;;12.70;7.47;;;8.60;81.60;;;;;;4994534;28;20556;-74
2022/01/19 07:15:29;;;;;;;13.98;8.00;;;8.70;81.50;;;;;;4992137;28;20042;-74
2022/01/19 07:17:54;;;;;;;13.45;7.57;;;8.70;81.30;;;;;;4997711;28;20027;-74
2022/01/19 07:20:20;;;;;;;12.00;6.80;;;8.70;81.30;;;;;;4997383;28;20037;-75
2022/01/19 07:22:47;;;;;;;12.25;7.15;;;8.70;81.40;;;;;;4996924;28;20108;-74
2022/01/19 07:25:14;;;;;;;13.43;8.30;;;8.70;81.00;;;;;;4994774;28;20109;-74
2022/01/19 07:27:40;;;;;;;15.32;7.72;;;8.70;81.00;;;;;;5003174;28;20034;-75
2022/01/19 07:30:06;;;;;;;12.88;7.57;;;8.70;81.00;;;;;;5012284;28;20034;-77
2022/01/19 07:32:34;;;;;;;13.90;7.88;;;8.70;81.20;;;;;;5001137;28;20022;-74
2022/01/19 07:35:01;;;;;;;13.27;7.55;;;8.70;81.00;;;;;;5004664;28;20399;-66
2022/01/19 07:37:27;;;;;;;12.90;7.07;;;8.70;80.80;;;;;;5011648;28;20643;-66
2022/01/19 07:39:53;;;;;;;11.73;7.35;;;8.80;81.10;;;;;;4996630;28;20034;-66
2022/01/19 07:42:19;;;;;;;11.40;7.22;;;8.80;81.10;;;;;;4999482;28;20030;-66
2022/01/19 07:44:45;;;;;;;13.50;8.48;;;8.80;81.20;;;;;;5000773;28;20161;-65
2022/01/19 07:47:11;;;;;;;14.45;8.20;;;8.90;80.90;;;;;;5000763;28;20098;-73
2022/01/19 07:49:37;;;;;;;13.55;7.78;;;8.90;80.60;;;;;;5000087;28;20571;-68
2022/01/19 07:52:03;;;;;;;12.68;7.50;;;8.90;80.60;;;;;;4996561;28;20030;-68
2022/01/19 07:54:28;;;;;;;12.38;8.05;;;8.90;80.70;;;;;;4999145;28;20026;-68
2022/01/19 07:56:54;;;;;;;13.05;7.88;;;8.90;81.50;;;;;;4997037;28;20497;-67
2022/01/19 07:59:20;;;;;;;14.20;7.70;;;8.80;80.50;;;;;;4997643;28;20015;-66
2022/01/19 08:01:46;;;;;;;11.75;6.85;;;8.90;80.50;;;;;;4997473;28;20056;-67
2022/01/19 08:04:11;;;;;;;13.35;7.38;;;8.80;80.50;;;;;;5010002;28;20510;-67
2022/01/19 08:06:37;;;;;;;12.32;7.70;;;8.80;80.40;;;;;;4995348;28;20085;-66
2022/01/19 08:09:04;;;;;;;13.05;7.30;;;8.80;80.40;;;;;;5016993;28;20100;-66
2022/01/19 08:11:30;;;;;;;14.00;7.85;;;8.80;80.50;;;;;;5022384;28;20030;-66
2022/01/19 08:13:55;;;;;;;15.85;9.45;;;8.80;80.50;;;;;;5021570;28;20022;-66
2022/01/19 08:16:21;;;;;;;13.55;8.52;;;8.80;80.50;;;;;;5020342;28;20041;-65
2022/01/19 08:18:48;;;;;;;13.88;7.90;;;8.80;80.50;;;;;;5012172;28;20023;-65
2022/01/19 08:21:14;;;;;;;14.30;8.13;;;8.80;80.30;;;;;;5016939;28;20099;-66
2022/01/19 08:23:39;;;;;;;12.40;7.38;;;8.80;80.50;;;;;;5017762;28;20419;-67
2022/01/19 08:26:06;;;;;;;12.13;7.57;;;8.80;80.60;;;;;;5015468;28;20041;-66
2022/01/19 08:28:32;;;;;;;13.07;7.90;;;8.80;80.50;;;;;;5021095;28;20076;-65
2022/01/19 08:30:58;;;;;;;13.60;7.32;;;8.80;80.50;;;;;;5016405;28;20037;-65
2022/01/19 08:33:23;;;;;;;11.70;7.20;;;8.80;80.50;;;;;;5019003;28;20029;-65
2022/01/19 08:35:51;;;;;;;12.05;7.53;;;8.70;80.30;;;;;;5017129;28;20045;-65
2022/01/19 08:38:17;;;;;;;11.70;7.40;;;8.70;80.20;;;;;;5011640;28;20080;-65
2022/01/19 08:40:43;;;;;;;15.50;8.02;;;8.70;80.60;;;;;;5010396;28;20037;-66
2022/01/19 08:43:09;;;;;;;15.15;9.40;;;8.70;80.60;;;;;;5012950;28;20018;-66
2022/01/19 08:45:35;;;;;;;12.63;7.30;;;8.70;80.60;;;;;;5014816;28;20034;-66
2022/01/19 08:48:01;;;;;;;15.60;8.65;;;8.70;80.50;;;;;;5007488;28;20109;-66
2022/01/19 08:50:28;;;;;;;13.65;8.40;;;8.70;80.50;;;;;;5007600;28;20192;-65
2022/01/19 08:52:54;;;;;;;15.45;8.50;;;8.60;80.50;;;;;;5005353;28;20432;-66
2022/01/19 08:55:20;;;;;;;15.02;7.88;;;8.60;80.40;;;;;;5021738;28;20030;-66
2022/01/19 08:57:46;;;;;;;15.35;8.98;;;8.60;80.50;;;;;;5005240;28;20113;-65
2022/01/19 09:00:14;;;;;;;13.88;8.68;;;8.60;81.70;;;;;;5002454;28;20426;-66
2022/01/19 09:02:40;;;;;;;14.73;7.95;;;8.60;81.00;;;;;;5005455;28;20050;-67
2022/01/19 09:05:07;;;;;;;12.38;6.88;;;8.70;81.10;;;;;;5009418;28;20057;-66
2022/01/19 09:07:33;;;;;;;14.00;8.52;;;8.70;80.90;;;;;;5006447;28;20064;-67
2022/01/19 09:09:59;;;;;;;13.43;8.25;;;8.70;80.80;;;;;;4987936;28;20768;-66
2022/01/19 09:12:25;;;;;;;13.13;7.38;;;8.80;80.90;;;;;;5019728;28;20033;-66
2022/01/19 09:14:50;;;;;;;13.93;7.75;;;8.80;81.00;;;;;;5013244;28;20025;-66
2022/01/19 09:17:16;;;;;;;10.40;6.97;;;8.80;80.80;;;;;;5017547;28;20103;-66
2022/01/19 09:19:42;;;;;;;13.68;8.00;;;8.80;80.70;;;;;;5013531;28;20499;-68
2022/01/19 09:22:10;;;;;;;14.80;7.72;;;8.80;80.60;;;;;;5000813;28;20168;-67
2022/01/19 09:24:40;;;;;;;13.02;7.45;;;8.80;80.50;;;;;;5005820;28;20112;-73
2022/01/19 09:27:09;;;;;;;11.88;7.60;;;8.80;80.60;;;;;;5006237;28;20381;-66
2022/01/19 09:29:38;;;;;;;10.50;6.63;;;8.90;80.80;;;;;;5008819;28;20611;-66
2022/01/19 09:32:08;;;;;;;10.35;6.78;;;8.90;80.80;;;;;;4999832;28;20018;-66
2022/01/19 09:34:34;;;;;;;12.98;7.32;;;8.90;80.50;;;;;;5004855;28;20531;-66
2022/01/19 09:37:00;;;;;;;13.40;7.82;;;8.90;80.60;;;;;;5003418;28;20520;-67
2022/01/19 09:39:26;;;;;;;10.45;6.63;;;8.90;80.60;;;;;;5007919;28;20022;-67
2022/01/19 09:41:54;;;;;;;13.45;7.35;;;9.00;80.60;;;;;;5010518;28;20033;-67
2022/01/19 09:44:23;;;;;;;12.20;7.38;;;9.00;80.70;;;;;;5003446;28;20058;-67
2022/01/19 09:46:50;;;;;;;12.02;7.45;;;9.00;80.40;;;;;;5006513;28;20124;-66
2022/01/19 09:49:19;;;;;;;15.25;8.00;;;9.00;80.30;;;;;;5010010;28;20558;-67
2022/01/19 09:51:47;;;;;;;11.45;7.00;;;9.00;80.40;;;;;;4992408;28;20037;-67
2022/01/19 09:54:13;;;;;;;13.05;7.05;;;9.00;80.30;;;;;;5003687;28;20451;-66
2022/01/19 09:56:40;;;;;;;10.45;6.13;;;9.00;80.20;;;;;;5010573;28;20040;-67
2022/01/19 09:59:07;;;;;;;11.32;7.05;;;9.00;80.20;;;;;;5004292;28;20497;-67
2022/01/19 10:01:33;;;;;;;13.55;7.53;;;9.00;79.70;;;;;;5009793;28;20105;-67
2022/01/19 10:04:38;;;;;;;15.27;8.50;;;9.00;79.50;;;;;;5007140;28;20072;-67
2022/01/19 10:07:23;;;;;;;;;;;9.00;79.80;;;;;;4993454;28;20045;-67
2022/01/19 10:09:54;;;;;;;12.48;6.43;;;9.00;80.00;;;;;;5008696;28;20007;-67
2022/01/19 10:18:12;;;;;;;10.38;6.28;;;9.10;79.70;;;;;;5007856;28;20103;-67
2022/01/19 10:20:38;;;;;;;10.70;6.57;;;9.10;79.70;;;;;;4999067;28;20022;-66
2022/01/19 10:23:04;;;;;;;10.90;6.93;;;9.10;79.60;;;;;;5009488;28;20088;-66
2022/01/19 10:25:47;;;;;;;11.38;6.70;;;9.10;79.30;;;;;;5009130;28;20064;-65
2022/01/19 10:28:13;;;;;;;11.93;6.97;;;9.10;79.50;;;;;;5008589;28;20538;-66
2022/01/19 10:30:39;;;;;;;9.68;6.15;;;9.10;79.30;;;;;;5008433;28;20025;-67
2022/01/19 10:33:04;;;;;;;11.07;7.00;;;9.20;79.60;;;;;;5007137;28;20504;-67
2022/01/19 10:35:36;;;;;;;9.70;5.90;;;9.20;79.50;;;;;;5003009;28;20051;-66
2022/01/19 10:38:14;;;;;;;11.98;6.80;;;9.20;79.40;;;;;;5012454;28;20022;-67
2022/01/19 10:41:04;;;;;;;10.70;6.38;;;9.30;79.80;;;;;;5009452;28;20026;-66
2022/01/19 10:43:48;;;;;;;11.38;7.25;;;9.40;80.00;;;;;;4987708;28;20057;-66
2022/01/19 10:46:33;;;;;;;11.02;6.40;;;9.50;79.60;;;;;;5004332;28;20022;-66
2022/01/19 10:49:05;;;;;;;11.20;6.88;;;9.60;79.40;;;;;;5002643;28;20113;-66
2022/01/19 10:51:37;;;;;;;13.07;7.18;;;9.60;78.90;;;;;;4997980;28;20045;-65
2022/01/19 10:54:11;;;;;;;11.13;6.45;;;9.60;78.90;;;;;;5002852;28;20650;-66
2022/01/19 10:56:39;;;;;;;12.13;6.70;;;9.60;79.10;;;;;;5003700;28;20069;-68
2022/01/19 10:59:09;;;;;;;11.80;7.25;;;9.70;79.30;;;;;;5006293;28;20026;-66
2022/01/19 11:01:47;;;;;;;10.88;6.82;;;9.70;78.90;;;;;;5010235;28;20116;-68
2022/01/19 11:04:22;;;;;;;10.93;7.13;;;9.80;78.60;;;;;;4997328;28;20038;-66
2022/01/19 11:06:54;;;;;;;10.55;6.53;;;9.80;79.60;;;;;;5013731;28;22891;-68
2022/01/19 11:09:24;;;;;;;10.93;6.63;;;9.90;78.90;;;;;;4997776;28;20545;-67
2022/01/19 11:11:52;;;;;;;9.95;6.35;;;10.00;78.70;;;;;;5011129;28;20030;-67
2022/01/19 11:14:18;;;;;;;9.63;6.13;;;10.00;79.00;;;;;;5011256;28;20018;-67
2022/01/19 11:16:44;;;;;;;11.95;5.88;;;10.10;78.30;;;;;;5010340;28;20423;-68
2022/01/19 11:19:11;;;;;;;10.50;5.97;;;10.10;78.10;;;;;;5013807;28;20117;-67
2022/01/19 11:21:50;;;;;;;10.30;6.15;;;10.20;77.60;;;;;;5004509;28;20038;-68
2022/01/19 11:24:45;;;;;;;9.45;6.03;;;10.20;78.10;;;;;;5006576;28;20443;-68
2022/01/19 11:27:11;;;;;;;9.55;5.30;;;10.30;78.10;;;;;;4971881;28;20038;-68
2022/01/19 11:29:38;;;;;;;11.15;6.70;;;10.40;78.00;;;;;;4964165;28;20043;-68
2022/01/19 11:32:19;;;;;;;11.75;6.28;;;10.50;77.30;;;;;;4968455;28;20130;-68
2022/01/19 11:34:49;;;;;;;11.35;6.47;;;10.40;77.00;;;;;;4968171;28;20214;-67
2022/01/19 11:37:49;;;;;;;10.57;6.50;;;10.50;77.60;;;;;;4973117;28;20129;-67
2022/01/19 11:40:18;;;;;;;12.40;7.13;;;11.00;79.60;;;;;;4921606;29;20036;-67
2022/01/19 11:42:44;;;;;;;9.30;6.10;;;11.60;80.00;;;;;;4933196;29;20036;-68
2022/01/19 11:45:38;;;;;;;11.57;6.90;;;12.30;79.10;;;;;;4941679;29;20070;-65
2022/01/19 11:48:12;;;;;;;11.15;6.45;;;12.50;75.60;;;;;;4934342;29;20043;-67
2022/01/19 11:50:38;;;;;;;10.48;6.80;;;12.50;75.20;;;;;;4934145;29;20494;-68
2022/01/19 11:53:09;;;;;;;11.75;6.78;;;12.50;74.00;;;;;;4931042;29;20059;-67
2022/01/19 11:55:36;;;;;;;10.38;6.28;;;12.50;73.30;;;;;;4932807;29;20130;-66
2022/01/19 11:58:20;;;;;;;10.13;6.72;;;12.40;73.40;;;;;;4933619;29;20032;-74
2022/01/19 12:00:52;;;;;;;9.32;5.78;;;12.40;74.90;;;;;;4899811;29;20038;-66
2022/01/19 12:03:28;;;;;;;10.85;6.47;;;12.50;74.00;;;;;;4878813;29;20036;-66
2022/01/19 12:05:55;;;;;;;9.10;6.15;;;12.90;74.80;;;;;;4941333;29;20522;-66
2022/01/19 12:08:32;;;;;;;10.18;6.28;;;13.30;73.60;;;;;;4948614;28;20118;-66
2022/01/19 12:11:22;;;;;;;9.85;6.25;;;13.60;73.10;;;;;;4951465;29;20034;-67
2022/01/19 12:14:34;;;;;;;9.10;5.93;;;14.10;73.70;;;;;;4949611;28;20035;-67
2022/01/19 12:17:02;;;;;;;9.93;5.93;;;14.60;73.90;;;;;;4997436;28;20041;-67
2022/01/19 12:19:39;;;;;;;9.40;5.57;;;14.90;70.70;;;;;;5004440;28;20049;-67
2022/01/19 12:22:28;;;;;;;7.28;5.20;;;15.40;70.50;;;;;;5005144;28;20025;-68
2022/01/19 12:24:59;;;;;;;6.47;4.57;;;15.90;69.30;;;;;;5002919;28;20022;-68
2022/01/19 12:27:32;;;;;;;7.63;4.63;;;16.00;65.80;;;;;;4995072;28;20022;-66
2022/01/19 12:30:07;;;;;;;6.43;4.05;;;16.40;68.40;;;;;;5003353;28;20053;-67
2022/01/19 12:32:36;;;;;;;5.72;3.55;;;16.10;64.30;;;;;;5004051;28;20030;-65
2022/01/19 12:35:04;;;;;;;6.90;3.47;;;15.90;64.50;;;;;;5008713;28;20515;-67
2022/01/19 12:37:46;;;;;;;6.13;4.05;;;15.60;63.50;;;;;;5006519;28;20042;-65
2022/01/19 12:40:17;;;;;;;6.10;3.53;;;15.40;64.50;;;;;;4996169;28;20045;-66
2022/01/19 12:42:44;;;;;;;6.05;3.50;;;15.10;65.30;;;;;;4995518;28;20511;-66
2022/01/19 12:45:18;;;;;;;5.82;3.65;;;15.00;65.20;;;;;;5016745;28;20018;-66
2022/01/19 12:47:49;;;;;;;6.57;3.50;;;14.70;65.10;;;;;;5012613;28;20053;-66
2022/01/19 12:50:17;;;;;;;5.40;3.10;;;14.50;65.80;;;;;;5006828;28;20043;-67
2022/01/19 12:52:49;;;;;;;5.85;3.33;;;14.20;65.80;;;;;;5011008;28;20061;-66
2022/01/19 12:55:24;;;;;;;5.18;3.25;;;13.90;64.70;;;;;;4997379;28;20500;-65
2022/01/19 12:57:50;;;;;;;4.45;2.97;;;13.40;65.80;;;;;;5000666;28;20034;-75
2022/01/19 13:00:28;;;;;;;5.10;2.90;;;13.10;66.80;;;;;;5009007;28;20476;-73
2022/01/19 13:02:54;;;;;;;4.70;3.05;;;12.90;66.90;;;;;;5008805;28;20026;-77
2022/01/19 13:05:20;;;;;;;4.80;3.10;;;12.70;67.40;;;;;;5004583;28;20037;-74
2022/01/19 13:07:52;;;;;;;4.93;2.97;;;12.50;68.10;;;;;;5002468;28;20027;-68
2022/01/19 13:10:40;;;;;;;6.07;3.42;;;12.40;68.20;;;;;;5011586;28;20068;-70
2022/01/19 13:13:11;;;;;;;6.57;3.15;;;12.30;68.30;;;;;;4999588;28;20053;-74
2022/01/19 13:15:47;;;;;;;5.63;3.08;;;12.10;69.10;;;;;;5007619;28;20030;-68
2022/01/19 13:18:16;;;;;;;6.38;3.40;;;12.10;69.30;;;;;;4997354;28;20026;-68
2022/01/19 13:20:54;;;;;;;5.50;3.03;;;12.00;69.60;;;;;;5005751;28;20041;-70
2022/01/19 13:23:20;;;;;;;6.57;3.28;;;11.90;69.90;;;;;;5000569;28;20117;-67
2022/01/19 13:25:59;;;;;;;7.28;3.75;;;11.80;69.00;;;;;;5004277;28;20388;-67
2022/01/19 13:28:26;;;;;;;7.20;3.20;;;11.80;70.00;;;;;;4999206;28;20030;-69
2022/01/19 13:30:56;;;;;;;5.85;3.15;;;11.70;70.00;;;;;;5011185;28;20030;-69
2022/01/19 13:33:23;;;;;;;6.45;3.65;;;11.70;70.40;;;;;;5002172;28;20526;-70
2022/01/19 13:35:58;;;;;;;6.70;3.25;;;11.70;70.40;;;;;;5006653;28;20033;-69
2022/01/19 13:38:26;;;;;;;6.47;3.28;;;11.70;70.70;;;;;;5009645;28;20510;-68
2022/01/19 13:41:00;;;;;;;6.07;3.50;;;11.70;71.10;;;;;;5006364;28;20041;-69
2022/01/19 13:43:26;;;;;;;5.60;3.60;;;11.70;70.70;;;;;;5008234;28;20500;-69
2022/01/19 13:46:01;;;;;;;6.57;3.78;;;11.60;70.40;;;;;;5017373;28;20033;-68
2022/01/19 13:51:04;;;;;;;8.57;3.58;;;11.60;70.90;;;;;;5010338;28;20036;-69
2022/01/19 13:53:34;;;;;;;5.22;3.50;;;11.50;71.00;;;;;;5003053;28;20084;-69
2022/01/19 13:56:03;;;;;;;6.90;3.50;;;11.50;71.40;;;;;;5010246;28;20568;-69
2022/01/19 13:58:36;;;;;;;5.80;3.58;;;11.50;71.00;;;;;;5009874;28;20037;-68
2022/01/19 14:01:07;;;;;;;6.40;3.70;;;11.40;71.10;;;;;;5004759;28;20065;-67
2022/01/19 14:03:58;;;;;;;6.13;3.63;;;11.40;71.50;;;;;;5010207;28;20026;-67
2022/01/19 14:06:32;;;;;;;5.47;3.53;;;11.40;71.60;;;;;;5002132;28;20486;-67
2022/01/19 14:09:17;;;;;;;5.13;3.25;;;11.40;71.40;;;;;;5003108;28;20022;-67
2022/01/19 14:11:47;;;;;;;5.45;3.22;;;11.40;71.70;;;;;;5004204;28;20049;-67
2022/01/19 14:14:22;;;;;;;5.68;3.28;;;11.30;71.50;;;;;;5008596;28;20399;-67
2022/01/19 14:16:51;;;;;;;4.95;3.05;;;11.30;71.60;;;;;;5007910;28;20472;-67
2022/01/19 14:19:27;;;;;;;6.45;3.20;;;11.20;71.50;;;;;;4997674;28;20026;-67
2022/01/19 14:22:07;;;;;;;5.70;3.58;;;11.20;72.00;;;;;;4999968;28;20033;-62
2022/01/19 14:24:57;;;;;;;6.10;3.88;;;11.10;72.20;;;;;;5007868;28;20088;-67
2022/01/19 14:27:25;;;;;;;5.40;3.03;;;11.10;72.00;;;;;;4996165;28;20029;-67
2022/01/19 14:29:58;;;;;;;5.32;3.33;;;11.10;72.00;;;;;;4999155;28;20133;-67